Johnstown, PA

2:42 AM EDT on August 31, 2014 (GMT -0400)
Indiana County-Stewart | Change Station
CLOSE
Current Station
Airport
Location: Indiana,
Elevation: 1407 ft
Nearby Weather Stations

Elev 1407 ft 40.63 °N, 79.11 °W | Updated 7 minutes ago

Overcast
Overcast
73 °F
Feels Like 73 °F
N
5
Wind Variable Wind from South

Today
High -- | Low -- °F
--% Chance of Precip.
Yesterday
High -- | Low -- °F
Precip. -- in
6:42 AM 7:49 PM
Waxing Crescent, 28% visible
Pressure 30.12 in
Visibility 10.0 miles
Clouds Mostly Cloudy 6500 ft
Overcast 7500 ft
Dew Point 68 °F
Humidity 83%
Rainfall 0.00 in
Snow Depth Not available.
UV 0 out of 12
Pollen 9.40 out of 12
Air Quality Not available.
Flu Activity Not available.
METAR KIDI 310635Z AUTO 19004KT 10SM BKN065 OVC075 23/20 A3012 RMK A01

More Conditions Fewer Conditions

Pressure 30.12 in
Visibility 10.0 miles
Clouds Mostly Cloudy 6500 ft
Overcast 7500 ft
Dew Point 68 °F
Humidity 83%
Rainfall 0.00 in
Snow Depth Not available.
UV 0 out of 12
Pollen 9.40 out of 12
Air Quality Not available.
Flu Activity Not available.
METAR KIDI 310635Z AUTO 19004KT 10SM BKN065 OVC075 23/20 A3012 RMK A01

More Conditions Fewer Conditions

Nowcast | as of 2:37 am EDT on August 31, 2014

Widely scattered showers will be across the western portion of central Pennsylvania through sunrise. Most of the activity will be west of a Wellsboro...State College...Bedford line. Some showers will contain brief torrential downpours. The showers are moving northeast at 25 mph.

×

10-Day Weather Forecast

Almanac

Astronomy

Aug. 31, 2014 Rise Set
Actual Time 6:42 AM EDT 7:49 PM EDT
Civil Twilight 6:14 AM EDT 8:16 PM EDT
Nautical Twilight 5:40 AM EDT 8:50 PM EDT
Astronomical Twilight 5:05 AM EDT 9:25 PM EDT
Moon 12:27 PM EDT 11:01 PM EDT
Length of Visible Light 14h 02m
Length of Day
13h 06m
Tomorrow will be 2m 32s shorter.
Waxing Crescent, 28% of the Moon is Illuminated
Today
Waxing Crescent
Sep 2
First Quarter
Sep 8
Full
Sep 15
Last Quarter
Sep 24
New

Today's Extremes

State Highs State Lows

Community

WunderPhotos

Upload Photos

1,748,800 photos uploaded!

Nearby

Snow Depth

Station Depth Elevation
No new snow has been reported.

Earthquake Activity

City Distance Mag. Time & Date
No recent earthquake activity has been reported nearby.
Minimum magnitude displayed is 2.5.

Coastal Water Temperatures

Place Temperature
No Stations Reporting

Nearby Weather Stations